TimeAKST,TemperatureF,Dew PointF,Humidity,Sea Level PressureIn,VisibilityMPH,Wind Direction,Wind SpeedMPH,Gust SpeedMPH,PrecipitationIn,Events,Conditions,WindDirDegrees,DateUTC
12:53 AM,10.9,-0.9,59,30.12,10.0,East,15.0,-,N/A,,Clear,90,2012-12-22 09:53:00
1:53 AM,10.0,-0.9,61,30.13,10.0,East,6.9,-,N/A,,Clear,90,2012-12-22 10:53:00
3:53 AM,7.0,-2.0,67,30.13,10.0,East,8.1,-,N/A,,Clear,90,2012-12-22 12:53:00
4:53 AM,3.9,-2.9,73,30.13,10.0,ESE,5.8,-,N/A,,Clear,110,2012-12-22 13:53:00
5:53 AM,3.9,-4.0,70,30.13,10.0,Calm,Calm,-,N/A,,Clear,0,2012-12-22 14:53:00
6:53 AM,1.0,-5.1,75,30.14,10.0,Calm,Calm,-,N/A,,Clear,0,2012-12-22 15:53:00
7:53 AM,-0.0,-7.1,72,30.14,10.0,Calm,Calm,-,N/A,,Clear,0,2012-12-22 16:53:00
8:53 AM,1.0,-8.0,66,30.13,10.0,Calm,Calm,-,N/A,,Clear,0,2012-12-22 17:53:00
9:53 AM,-0.9,-9.9,66,30.14,10.0,Calm,Calm,-,N/A,,Clear,0,2012-12-22 18:53:00
10:53 AM,-0.0,-9.9,63,30.14,10.0,Calm,Calm,-,N/A,,Clear,0,2012-12-22 19:53:00
11:40 AM,-0.4,-9.4,66,30.13,5.0,Calm,Calm,-,N/A,,Partly Cloudy,0,2012-12-22 20:40:00
11:53 AM,-2.9,-11.0,68,30.14,10.0,Calm,Calm,-,N/A,,Clear,0,2012-12-22 20:53:00
12:53 PM,-5.1,-13.0,69,30.14,10.0,NNE,3.5,-,N/A,,Clear,30,2012-12-22 21:53:00
1:53 PM,-0.9,-9.9,66,30.13,10.0,Calm,Calm,-,N/A,,Clear,0,2012-12-22 22:53:00
2:53 PM,-2.0,-11.0,66,30.14,10.0,Calm,Calm,-,N/A,,Clear,0,2012-12-22 23:53:00
3:53 PM,-2.9,-9.9,72,30.14,10.0,Calm,Calm,-,N/A,,Clear,0,2012-12-23 00:53:00
4:53 PM,-2.0,-9.9,69,30.14,10.0,Calm,Calm,-,N/A,,Scattered Clouds,0,2012-12-23 01:53:00
5:53 PM,-5.1,-11.9,72,30.13,10.0,Calm,Calm,-,N/A,,Scattered Clouds,0,2012-12-23 02:53:00
6:53 PM,-0.0,-8.0,69,30.13,10.0,Calm,Calm,-,N/A,,Scattered Clouds,0,2012-12-23 03:53:00
7:53 PM,1.9,-5.1,72,30.12,10.0,Calm,Calm,-,N/A,,Scattered Clouds,0,2012-12-23 04:53:00
8:53 PM,3.9,-5.1,66,30.10,10.0,Calm,Calm,-,N/A,,Mostly Cloudy,0,2012-12-23 05:53:00
9:53 PM,5.0,-2.9,70,30.10,10.0,Calm,Calm,-,N/A,,Mostly Cloudy,0,2012-12-23 06:53:00
10:53 PM,-0.9,-8.0,72,30.10,10.0,Calm,Calm,-,N/A,,Scattered Clouds,0,2012-12-23 07:53:00
11:53 PM,-5.1,-11.0,76,30.10,10.0,NNW,3.5,-,N/A,,Clear,330,2012-12-23 08:53:00